sensor_id;sensor_type;location;lat;lon;timestamp;P1;durP1;ratioP1;P2;durP2;ratioP2
50932;SDS011;36921;49.006;9.292;2023-08-31T00:02:16;4.80;;;2.22;;
50932;SDS011;36921;49.006;9.292;2023-08-31T00:04:41;4.32;;;2.20;;
50932;SDS011;36921;49.006;9.292;2023-08-31T00:07:07;2.75;;;1.95;;
50932;SDS011;36921;49.006;9.292;2023-08-31T00:09:32;3.28;;;2.08;;
50932;SDS011;36921;49.006;9.292;2023-08-31T00:12:01;4.80;;;1.98;;
50932;SDS011;36921;49.006;9.292;2023-08-31T00:14:27;3.30;;;1.80;;
50932;SDS011;36921;49.006;9.292;2023-08-31T00:16:53;4.95;;;2.00;;
50932;SDS011;36921;49.006;9.292;2023-08-31T00:19:19;5.32;;;2.38;;
50932;SDS011;36921;49.006;9.292;2023-08-31T00:21:44;6.72;;;2.97;;
50932;SDS011;36921;49.006;9.292;2023-08-31T00:24:10;4.03;;;2.10;;
50932;SDS011;36921;49.006;9.292;2023-08-31T00:26:36;3.45;;;2.08;;
50932;SDS011;36921;49.006;9.292;2023-08-31T00:29:08;5.00;;;2.47;;
50932;SDS011;36921;49.006;9.292;2023-08-31T00:31:34;4.93;;;2.47;;
50932;SDS011;36921;49.006;9.292;2023-08-31T00:33:59;4.50;;;2.33;;
50932;SDS011;36921;49.006;9.292;2023-08-31T00:36:29;7.93;;;2.83;;
50932;SDS011;36921;49.006;9.292;2023-08-31T00:38:55;5.63;;;2.38;;
50932;SDS011;36921;49.006;9.292;2023-08-31T00:41:21;8.63;;;3.30;;
50932;SDS011;36921;49.006;9.292;2023-08-31T00:43:47;5.05;;;2.75;;
50932;SDS011;36921;49.006;9.292;2023-08-31T00:46:12;8.40;;;2.90;;
50932;SDS011;36921;49.006;9.292;2023-08-31T00:48:39;6.45;;;2.63;;
50932;SDS011;36921;49.006;9.292;2023-08-31T00:51:05;6.40;;;2.88;;
50932;SDS011;36921;49.006;9.292;2023-08-31T00:53:32;5.43;;;2.83;;
50932;SDS011;36921;49.006;9.292;2023-08-31T00:55:58;9.40;;;3.35;;
50932;SDS011;36921;49.006;9.292;2023-08-31T00:58:23;6.68;;;3.03;;
50932;SDS011;36921;49.006;9.292;2023-08-31T01:01:09;5.85;;;3.00;;
50932;SDS011;36921;49.006;9.292;2023-08-31T01:03:47;5.65;;;3.00;;
50932;SDS011;36921;49.006;9.292;2023-08-31T01:06:27;5.32;;;2.90;;
50932;SDS011;36921;49.006;9.292;2023-08-31T01:09:04;5.18;;;3.25;;
50932;SDS011;36921;49.006;9.292;2023-08-31T01:11:45;8.40;;;3.30;;
50932;SDS011;36921;49.006;9.292;2023-08-31T01:14:17;7.70;;;2.97;;
50932;SDS011;36921;49.006;9.292;2023-08-31T01:16:45;7.20;;;3.17;;
50932;SDS011;36921;49.006;9.292;2023-08-31T01:19:20;6.88;;;3.42;;
50932;SDS011;36921;49.006;9.292;2023-08-31T01:21:47;6.88;;;3.17;;
50932;SDS011;36921;49.006;9.292;2023-08-31T01:24:15;6.82;;;3.42;;
50932;SDS011;36921;49.006;9.292;2023-08-31T01:26:40;8.55;;;3.58;;
50932;SDS011;36921;49.006;9.292;2023-08-31T01:29:07;8.23;;;3.65;;
50932;SDS011;36921;49.006;9.292;2023-08-31T01:31:33;7.07;;;3.80;;
50932;SDS011;36921;49.006;9.292;2023-08-31T01:34:06;9.27;;;3.63;;
50932;SDS011;36921;49.006;9.292;2023-08-31T01:36:32;9.60;;;4.30;;
50932;SDS011;36921;49.006;9.292;2023-08-31T01:39:06;5.70;;;3.47;;
50932;SDS011;36921;49.006;9.292;2023-08-31T01:41:34;12.88;;;4.57;;
50932;SDS011;36921;49.006;9.292;2023-08-31T01:44:00;10.88;;;4.53;;
50932;SDS011;36921;49.006;9.292;2023-08-31T01:46:27;10.70;;;3.47;;
50932;SDS011;36921;49.006;9.292;2023-08-31T01:48:53;5.95;;;4.07;;
50932;SDS011;36921;49.006;9.292;2023-08-31T01:51:18;5.70;;;3.75;;
50932;SDS011;36921;49.006;9.292;2023-08-31T01:53:43;14.10;;;4.18;;
50932;SDS011;36921;49.006;9.292;2023-08-31T01:56:09;7.68;;;4.50;;
50932;SDS011;36921;49.006;9.292;2023-08-31T01:58:35;7.63;;;4.20;;
50932;SDS011;36921;49.006;9.292;2023-08-31T02:01:00;8.32;;;4.63;;
50932;SDS011;36921;49.006;9.292;2023-08-31T02:03:25;7.97;;;4.05;;
50932;SDS011;36921;49.006;9.292;2023-08-31T02:05:50;7.13;;;4.07;;
50932;SDS011;36921;49.006;9.292;2023-08-31T02:08:16;6.72;;;4.00;;
50932;SDS011;36921;49.006;9.292;2023-08-31T02:10:43;6.45;;;4.03;;
50932;SDS011;36921;49.006;9.292;2023-08-31T02:13:08;8.95;;;3.90;;
50932;SDS011;36921;49.006;9.292;2023-08-31T02:15:34;8.25;;;3.72;;
50932;SDS011;36921;49.006;9.292;2023-08-31T02:18:03;5.57;;;3.15;;
50932;SDS011;36921;49.006;9.292;2023-08-31T02:20:28;7.30;;;3.40;;
50932;SDS011;36921;49.006;9.292;2023-08-31T02:22:53;7.28;;;3.58;;
50932;SDS011;36921;49.006;9.292;2023-08-31T02:25:20;9.15;;;3.55;;
50932;SDS011;36921;49.006;9.292;2023-08-31T02:27:46;7.65;;;3.45;;
50932;SDS011;36921;49.006;9.292;2023-08-31T02:30:11;4.93;;;3.22;;
50932;SDS011;36921;49.006;9.292;2023-08-31T02:32:37;6.15;;;3.50;;
50932;SDS011;36921;49.006;9.292;2023-08-31T02:35:02;8.85;;;3.15;;
50932;SDS011;36921;49.006;9.292;2023-08-31T02:37:27;7.13;;;3.53;;
50932;SDS011;36921;49.006;9.292;2023-08-31T02:39:53;10.15;;;3.60;;
50932;SDS011;36921;49.006;9.292;2023-08-31T02:42:18;6.82;;;3.33;;
50932;SDS011;36921;49.006;9.292;2023-08-31T02:44:43;6.60;;;2.90;;
50932;SDS011;36921;49.006;9.292;2023-08-31T02:47:09;6.28;;;2.58;;
50932;SDS011;36921;49.006;9.292;2023-08-31T02:49:34;8.57;;;2.55;;
50932;SDS011;36921;49.006;9.292;2023-08-31T02:51:59;6.78;;;2.85;;
50932;SDS011;36921;49.006;9.292;2023-08-31T02:54:24;8.63;;;3.30;;
50932;SDS011;36921;49.006;9.292;2023-08-31T02:56:51;5.85;;;3.08;;
50932;SDS011;36921;49.006;9.292;2023-08-31T02:59:16;7.60;;;3.38;;
50932;SDS011;36921;49.006;9.292;2023-08-31T03:01:42;5.72;;;3.25;;
50932;SDS011;36921;49.006;9.292;2023-08-31T03:04:11;7.65;;;3.33;;
50932;SDS011;36921;49.006;9.292;2023-08-31T03:06:36;5.68;;;3.05;;
50932;SDS011;36921;49.006;9.292;2023-08-31T03:09:02;14.18;;;3.38;;
50932;SDS011;36921;49.006;9.292;2023-08-31T03:11:27;8.75;;;2.83;;
50932;SDS011;36921;49.006;9.292;2023-08-31T03:13:52;6.65;;;2.97;;
50932;SDS011;36921;49.006;9.292;2023-08-31T03:16:18;5.95;;;3.13;;
50932;SDS011;36921;49.006;9.292;2023-08-31T03:18:43;5.25;;;3.33;;
50932;SDS011;36921;49.006;9.292;2023-08-31T03:21:08;4.40;;;2.70;;
50932;SDS011;36921;49.006;9.292;2023-08-31T03:23:34;5.47;;;2.95;;
50932;SDS011;36921;49.006;9.292;2023-08-31T03:25:59;6.32;;;2.80;;
50932;SDS011;36921;49.006;9.292;2023-08-31T03:28:25;5.68;;;3.42;;
50932;SDS011;36921;49.006;9.292;2023-08-31T03:30:54;7.03;;;3.47;;
50932;SDS011;36921;49.006;9.292;2023-08-31T03:33:20;4.85;;;3.17;;
50932;SDS011;36921;49.006;9.292;2023-08-31T03:35:45;4.68;;;3.38;;
50932;SDS011;36921;49.006;9.292;2023-08-31T03:38:11;8.80;;;3.33;;
50932;SDS011;36921;49.006;9.292;2023-08-31T03:40:36;6.70;;;3.65;;
50932;SDS011;36921;49.006;9.292;2023-08-31T03:43:01;7.38;;;3.88;;
50932;SDS011;36921;49.006;9.292;2023-08-31T03:45:26;10.55;;;3.70;;
50932;SDS011;36921;49.006;9.292;2023-08-31T03:47:52;5.25;;;3.33;;
50932;SDS011;36921;49.006;9.292;2023-08-31T03:50:18;6.93;;;3.45;;
50932;SDS011;36921;49.006;9.292;2023-08-31T03:52:43;10.48;;;3.45;;
50932;SDS011;36921;49.006;9.292;2023-08-31T03:55:09;5.38;;;3.47;;
50932;SDS011;36921;49.006;9.292;2023-08-31T03:57:35;6.00;;;3.97;;
50932;SDS011;36921;49.006;9.292;2023-08-31T04:00:00;8.15;;;4.28;;
50932;SDS011;36921;49.006;9.292;2023-08-31T04:02:28;7.55;;;4.05;;
50932;SDS011;36921;49.006;9.292;2023-08-31T04:04:53;7.22;;;3.60;;
50932;SDS011;36921;49.006;9.292;2023-08-31T04:07:19;11.05;;;4.40;;
50932;SDS011;36921;49.006;9.292;2023-08-31T04:09:44;7.40;;;3.83;;
50932;SDS011;36921;49.006;9.292;2023-08-31T04:12:09;8.15;;;4.28;;
50932;SDS011;36921;49.006;9.292;2023-08-31T04:14:35;6.47;;;4.15;;
50932;SDS011;36921;49.006;9.292;2023-08-31T04:17:00;8.15;;;4.30;;
50932;SDS011;36921;49.006;9.292;2023-08-31T04:19:25;8.32;;;4.57;;
50932;SDS011;36921;49.006;9.292;2023-08-31T04:21:50;7.47;;;4.00;;
50932;SDS011;36921;49.006;9.292;2023-08-31T04:24:16;10.32;;;4.30;;
50932;SDS011;36921;49.006;9.292;2023-08-31T04:26:42;8.07;;;3.95;;
50932;SDS011;36921;49.006;9.292;2023-08-31T04:29:08;6.20;;;3.42;;
50932;SDS011;36921;49.006;9.292;2023-08-31T04:31:33;11.05;;;3.53;;
50932;SDS011;36921;49.006;9.292;2023-08-31T04:33:58;8.13;;;3.38;;
50932;SDS011;36921;49.006;9.292;2023-08-31T04:36:24;7.00;;;3.60;;
50932;SDS011;36921;49.006;9.292;2023-08-31T04:38:50;9.27;;;3.65;;
50932;SDS011;36921;49.006;9.292;2023-08-31T04:41:16;9.77;;;3.88;;
50932;SDS011;36921;49.006;9.292;2023-08-31T04:43:41;7.28;;;4.00;;
50932;SDS011;36921;49.006;9.292;2023-08-31T04:46:07;5.95;;;3.22;;
50932;SDS011;36921;49.006;9.292;2023-08-31T04:48:32;9.60;;;3.80;;
50932;SDS011;36921;49.006;9.292;2023-08-31T04:50:57;10.18;;;3.55;;
50932;SDS011;36921;49.006;9.292;2023-08-31T04:53:23;4.93;;;3.40;;
50932;SDS011;36921;49.006;9.292;2023-08-31T04:55:49;10.65;;;3.30;;
50932;SDS011;36921;49.006;9.292;2023-08-31T04:58:14;10.13;;;3.80;;
50932;SDS011;36921;49.006;9.292;2023-08-31T05:00:39;7.18;;;3.72;;
50932;SDS011;36921;49.006;9.292;2023-08-31T05:05:39;5.00;;;3.00;;
50932;SDS011;36921;49.006;9.292;2023-08-31T05:08:07;6.53;;;3.33;;
50932;SDS011;36921;49.006;9.292;2023-08-31T05:10:33;6.07;;;3.03;;
50932;SDS011;36921;49.006;9.292;2023-08-31T05:12:59;4.55;;;2.80;;
50932;SDS011;36921;49.006;9.292;2023-08-31T05:15:24;5.22;;;3.13;;
50932;SDS011;36921;49.006;9.292;2023-08-31T05:17:52;5.13;;;2.75;;
50932;SDS011;36921;49.006;9.292;2023-08-31T05:20:18;8.05;;;3.25;;
50932;SDS011;36921;49.006;9.292;2023-08-31T05:22:43;8.30;;;2.95;;
50932;SDS011;36921;49.006;9.292;2023-08-31T05:25:09;5.90;;;2.78;;
50932;SDS011;36921;49.006;9.292;2023-08-31T05:27:34;7.90;;;2.40;;
50932;SDS011;36921;49.006;9.292;2023-08-31T05:29:59;4.88;;;2.40;;
50932;SDS011;36921;49.006;9.292;2023-08-31T05:32:27;5.82;;;2.42;;
50932;SDS011;36921;49.006;9.292;2023-08-31T05:37:19;4.63;;;2.40;;
50932;SDS011;36921;49.006;9.292;2023-08-31T05:39:47;5.57;;;2.35;;
50932;SDS011;36921;49.006;9.292;2023-08-31T05:42:14;7.10;;;2.25;;
50932;SDS011;36921;49.006;9.292;2023-08-31T05:44:39;7.20;;;2.13;;
50932;SDS011;36921;49.006;9.292;2023-08-31T05:47:04;4.53;;;2.03;;
50932;SDS011;36921;49.006;9.292;2023-08-31T05:49:30;5.80;;;2.10;;
50932;SDS011;36921;49.006;9.292;2023-08-31T05:51:55;4.85;;;1.88;;
50932;SDS011;36921;49.006;9.292;2023-08-31T05:54:21;5.93;;;2.13;;
50932;SDS011;36921;49.006;9.292;2023-08-31T05:56:46;8.20;;;2.40;;
50932;SDS011;36921;49.006;9.292;2023-08-31T05:59:13;10.50;;;2.28;;
50932;SDS011;36921;49.006;9.292;2023-08-31T06:01:39;7.00;;;2.35;;
50932;SDS011;36921;49.006;9.292;2023-08-31T06:04:04;7.47;;;2.30;;
50932;SDS011;36921;49.006;9.292;2023-08-31T06:06:30;4.60;;;2.45;;
50932;SDS011;36921;49.006;9.292;2023-08-31T06:08:57;4.68;;;2.03;;
50932;SDS011;36921;49.006;9.292;2023-08-31T06:11:23;6.07;;;2.00;;
50932;SDS011;36921;49.006;9.292;2023-08-31T06:13:48;3.15;;;1.90;;
50932;SDS011;36921;49.006;9.292;2023-08-31T06:16:14;4.85;;;2.20;;
50932;SDS011;36921;49.006;9.292;2023-08-31T06:18:39;3.17;;;2.00;;
50932;SDS011;36921;49.006;9.292;2023-08-31T06:21:04;5.85;;;2.08;;
50932;SDS011;36921;49.006;9.292;2023-08-31T06:23:30;4.28;;;2.08;;
50932;SDS011;36921;49.006;9.292;2023-08-31T06:25:56;4.35;;;2.08;;
50932;SDS011;36921;49.006;9.292;2023-08-31T06:28:21;3.42;;;1.98;;
50932;SDS011;36921;49.006;9.292;2023-08-31T06:30:48;5.45;;;2.20;;
50932;SDS011;36921;49.006;9.292;2023-08-31T06:33:14;4.18;;;1.60;;
50932;SDS011;36921;49.006;9.292;2023-08-31T06:35:40;2.97;;;1.60;;
50932;SDS011;36921;49.006;9.292;2023-08-31T06:38:05;4.20;;;1.38;;
50932;SDS011;36921;49.006;9.292;2023-08-31T06:40:31;4.50;;;1.33;;
50932;SDS011;36921;49.006;9.292;2023-08-31T06:42:56;5.57;;;1.35;;
50932;SDS011;36921;49.006;9.292;2023-08-31T06:45:22;6.15;;;1.70;;
50932;SDS011;36921;49.006;9.292;2023-08-31T06:47:47;3.92;;;1.70;;
50932;SDS011;36921;49.006;9.292;2023-08-31T06:50:13;5.30;;;1.60;;
50932;SDS011;36921;49.006;9.292;2023-08-31T06:52:39;4.82;;;1.65;;
50932;SDS011;36921;49.006;9.292;2023-08-31T06:55:06;3.08;;;1.30;;
50932;SDS011;36921;49.006;9.292;2023-08-31T06:57:32;3.40;;;1.40;;
50932;SDS011;36921;49.006;9.292;2023-08-31T06:59:57;5.13;;;1.70;;
50932;SDS011;36921;49.006;9.292;2023-08-31T07:02:25;7.80;;;2.10;;
50932;SDS011;36921;49.006;9.292;2023-08-31T07:04:51;6.07;;;1.95;;
50932;SDS011;36921;49.006;9.292;2023-08-31T07:07:17;5.28;;;1.55;;
50932;SDS011;36921;49.006;9.292;2023-08-31T07:09:43;3.70;;;1.67;;
50932;SDS011;36921;49.006;9.292;2023-08-31T07:12:09;3.78;;;1.90;;
50932;SDS011;36921;49.006;9.292;2023-08-31T07:14:35;3.22;;;1.50;;
50932;SDS011;36921;49.006;9.292;2023-08-31T07:17:00;4.13;;;1.77;;
50932;SDS011;36921;49.006;9.292;2023-08-31T07:19:26;3.75;;;1.60;;
50932;SDS011;36921;49.006;9.292;2023-08-31T07:21:52;3.65;;;1.75;;
50932;SDS011;36921;49.006;9.292;2023-08-31T07:24:19;6.40;;;1.85;;
50932;SDS011;36921;49.006;9.292;2023-08-31T07:26:46;6.78;;;1.50;;
50932;SDS011;36921;49.006;9.292;2023-08-31T07:29:11;8.48;;;1.50;;
50932;SDS011;36921;49.006;9.292;2023-08-31T07:31:37;4.55;;;1.40;;
50932;SDS011;36921;49.006;9.292;2023-08-31T07:34:02;5.32;;;1.65;;
50932;SDS011;36921;49.006;9.292;2023-08-31T07:36:29;5.70;;;1.70;;
50932;SDS011;36921;49.006;9.292;2023-08-31T07:38:55;7.60;;;1.90;;
50932;SDS011;36921;49.006;9.292;2023-08-31T07:41:20;6.55;;;2.50;;
50932;SDS011;36921;49.006;9.292;2023-08-31T07:43:45;4.95;;;1.50;;
50932;SDS011;36921;49.006;9.292;2023-08-31T07:46:11;5.50;;;1.80;;
50932;SDS011;36921;49.006;9.292;2023-08-31T07:48:36;5.57;;;1.58;;
50932;SDS011;36921;49.006;9.292;2023-08-31T07:51:02;4.07;;;1.40;;
50932;SDS011;36921;49.006;9.292;2023-08-31T07:53:28;7.05;;;1.27;;
50932;SDS011;36921;49.006;9.292;2023-08-31T07:55:54;6.60;;;1.27;;
50932;SDS011;36921;49.006;9.292;2023-08-31T07:58:21;3.90;;;1.52;;
50932;SDS011;36921;49.006;9.292;2023-08-31T08:00:47;4.70;;;1.45;;
50932;SDS011;36921;49.006;9.292;2023-08-31T08:03:13;4.95;;;1.30;;
50932;SDS011;36921;49.006;9.292;2023-08-31T08:05:39;3.55;;;1.20;;
50932;SDS011;36921;49.006;9.292;2023-08-31T08:08:05;4.20;;;1.00;;
50932;SDS011;36921;49.006;9.292;2023-08-31T08:10:31;4.38;;;1.00;;
50932;SDS011;36921;49.006;9.292;2023-08-31T08:12:56;4.53;;;1.05;;
50932;SDS011;36921;49.006;9.292;2023-08-31T08:15:21;3.67;;;1.10;;
50932;SDS011;36921;49.006;9.292;2023-08-31T08:17:47;4.85;;;1.40;;
50932;SDS011;36921;49.006;9.292;2023-08-31T08:20:13;5.70;;;1.10;;
50932;SDS011;36921;49.006;9.292;2023-08-31T08:22:40;3.45;;;1.10;;
50932;SDS011;36921;49.006;9.292;2023-08-31T08:25:05;6.65;;;1.27;;
50932;SDS011;36921;49.006;9.292;2023-08-31T08:27:31;6.45;;;1.00;;
50932;SDS011;36921;49.006;9.292;2023-08-31T08:29:58;4.55;;;1.40;;
50932;SDS011;36921;49.006;9.292;2023-08-31T08:32:26;4.70;;;1.40;;
50932;SDS011;36921;49.006;9.292;2023-08-31T08:34:51;4.90;;;1.30;;
50932;SDS011;36921;49.006;9.292;2023-08-31T08:37:17;3.58;;;1.35;;
50932;SDS011;36921;49.006;9.292;2023-08-31T08:39:42;2.28;;;1.20;;
50932;SDS011;36921;49.006;9.292;2023-08-31T08:42:09;3.70;;;1.25;;
50932;SDS011;36921;49.006;9.292;2023-08-31T08:44:35;4.32;;;1.33;;
50932;SDS011;36921;49.006;9.292;2023-08-31T08:47:01;3.67;;;1.20;;
50932;SDS011;36921;49.006;9.292;2023-08-31T08:49:27;3.03;;;1.23;;
50932;SDS011;36921;49.006;9.292;2023-08-31T08:51:55;3.78;;;1.48;;
50932;SDS011;36921;49.006;9.292;2023-08-31T08:54:24;4.15;;;1.15;;
50932;SDS011;36921;49.006;9.292;2023-08-31T08:56:50;4.72;;;1.15;;
50932;SDS011;36921;49.006;9.292;2023-08-31T08:59:15;3.90;;;1.02;;
50932;SDS011;36921;49.006;9.292;2023-08-31T09:01:41;7.97;;;1.30;;
50932;SDS011;36921;49.006;9.292;2023-08-31T09:04:08;5.90;;;1.45;;
50932;SDS011;36921;49.006;9.292;2023-08-31T09:06:34;4.22;;;0.98;;
50932;SDS011;36921;49.006;9.292;2023-08-31T09:09:00;4.25;;;1.27;;
50932;SDS011;36921;49.006;9.292;2023-08-31T09:11:26;3.25;;;1.10;;
50932;SDS011;36921;49.006;9.292;2023-08-31T09:13:51;4.78;;;1.30;;
50932;SDS011;36921;49.006;9.292;2023-08-31T09:16:24;2.53;;;0.98;;
50932;SDS011;36921;49.006;9.292;2023-08-31T09:18:54;4.45;;;1.20;;
50932;SDS011;36921;49.006;9.292;2023-08-31T09:21:20;6.18;;;1.42;;
50932;SDS011;36921;49.006;9.292;2023-08-31T09:23:56;5.97;;;1.42;;
50932;SDS011;36921;49.006;9.292;2023-08-31T09:26:25;3.05;;;0.93;;
50932;SDS011;36921;49.006;9.292;2023-08-31T09:28:50;5.68;;;1.50;;
50932;SDS011;36921;49.006;9.292;2023-08-31T09:31:16;3.13;;;1.05;;
50932;SDS011;36921;49.006;9.292;2023-08-31T09:33:51;6.93;;;0.90;;
50932;SDS011;36921;49.006;9.292;2023-08-31T09:36:17;2.90;;;1.08;;
50932;SDS011;36921;49.006;9.292;2023-08-31T09:38:44;3.67;;;1.02;;
50932;SDS011;36921;49.006;9.292;2023-08-31T09:41:10;2.63;;;1.15;;
50932;SDS011;36921;49.006;9.292;2023-08-31T09:43:36;5.13;;;1.48;;
50932;SDS011;36921;49.006;9.292;2023-08-31T09:46:03;3.42;;;1.13;;
50932;SDS011;36921;49.006;9.292;2023-08-31T09:48:29;3.22;;;1.08;;
50932;SDS011;36921;49.006;9.292;2023-08-31T09:50:55;6.53;;;1.45;;
50932;SDS011;36921;49.006;9.292;2023-08-31T09:53:21;5.82;;;1.10;;
50932;SDS011;36921;49.006;9.292;2023-08-31T09:55:49;5.93;;;1.23;;
50932;SDS011;36921;49.006;9.292;2023-08-31T09:58:18;3.17;;;1.25;;
50932;SDS011;36921;49.006;9.292;2023-08-31T10:00:45;2.50;;;1.07;;
50932;SDS011;36921;49.006;9.292;2023-08-31T10:03:11;2.25;;;1.10;;
50932;SDS011;36921;49.006;9.292;2023-08-31T10:05:39;4.33;;;1.50;;
50932;SDS011;36921;49.006;9.292;2023-08-31T10:08:05;2.70;;;1.10;;
50932;SDS011;36921;49.006;9.292;2023-08-31T10:10:32;2.90;;;0.88;;
50932;SDS011;36921;49.006;9.292;2023-08-31T10:12:58;4.38;;;1.15;;
50932;SDS011;36921;49.006;9.292;2023-08-31T10:15:25;3.05;;;1.20;;
50932;SDS011;36921;49.006;9.292;2023-08-31T10:17:55;4.03;;;1.20;;
50932;SDS011;36921;49.006;9.292;2023-08-31T10:20:21;2.97;;;1.13;;
50932;SDS011;36921;49.006;9.292;2023-08-31T10:22:46;5.25;;;0.90;;
50932;SDS011;36921;49.006;9.292;2023-08-31T10:25:12;1.75;;;1.00;;
50932;SDS011;36921;49.006;9.292;2023-08-31T10:27:46;3.70;;;1.23;;
50932;SDS011;36921;49.006;9.292;2023-08-31T10:33:33;3.42;;;1.17;;
50932;SDS011;36921;49.006;9.292;2023-08-31T10:35:47;4.03;;;1.15;;
50932;SDS011;36921;49.006;9.292;2023-08-31T10:38:14;2.40;;;0.90;;
50932;SDS011;36921;49.006;9.292;2023-08-31T10:40:40;5.22;;;1.20;;
50932;SDS011;36921;49.006;9.292;2023-08-31T10:43:16;6.30;;;1.30;;
50932;SDS011;36921;49.006;9.292;2023-08-31T10:45:44;3.90;;;1.17;;
50932;SDS011;36921;49.006;9.292;2023-08-31T10:48:11;4.05;;;1.15;;
50932;SDS011;36921;49.006;9.292;2023-08-31T10:50:43;2.78;;;1.20;;
50932;SDS011;36921;49.006;9.292;2023-08-31T10:53:12;3.30;;;0.98;;
50932;SDS011;36921;49.006;9.292;2023-08-31T10:55:50;4.30;;;1.52;;
50932;SDS011;36921;49.006;9.292;2023-08-31T10:58:17;3.30;;;0.90;;
50932;SDS011;36921;49.006;9.292;2023-08-31T11:00:46;5.53;;;1.70;;
50932;SDS011;36921;49.006;9.292;2023-08-31T11:03:15;1.75;;;1.10;;
50932;SDS011;36921;49.006;9.292;2023-08-31T11:05:50;2.40;;;1.00;;
50932;SDS011;36921;49.006;9.292;2023-08-31T11:08:21;3.22;;;1.23;;
50932;SDS011;36921;49.006;9.292;2023-08-31T11:10:47;3.03;;;1.10;;
50932;SDS011;36921;49.006;9.292;2023-08-31T11:13:16;3.83;;;1.20;;
50932;SDS011;36921;49.006;9.292;2023-08-31T11:15:48;4.10;;;1.20;;
50932;SDS011;36921;49.006;9.292;2023-08-31T11:18:13;4.97;;;1.60;;
50932;SDS011;36921;49.006;9.292;2023-08-31T11:20:42;4.38;;;1.45;;
50932;SDS011;36921;49.006;9.292;2023-08-31T11:23:08;3.80;;;1.10;;
50932;SDS011;36921;49.006;9.292;2023-08-31T11:25:33;4.97;;;1.30;;
50932;SDS011;36921;49.006;9.292;2023-08-31T11:27:59;5.80;;;1.35;;
50932;SDS011;36921;49.006;9.292;2023-08-31T11:30:26;3.35;;;1.30;;
50932;SDS011;36921;49.006;9.292;2023-08-31T11:32:56;3.80;;;1.30;;
50932;SDS011;36921;49.006;9.292;2023-08-31T11:35:30;6.45;;;1.30;;
50932;SDS011;36921;49.006;9.292;2023-08-31T11:38:02;4.55;;;1.38;;
50932;SDS011;36921;49.006;9.292;2023-08-31T11:40:29;5.60;;;1.33;;
50932;SDS011;36921;49.006;9.292;2023-08-31T11:42:55;5.57;;;1.30;;
50932;SDS011;36921;49.006;9.292;2023-08-31T11:45:22;3.65;;;1.25;;
50932;SDS011;36921;49.006;9.292;2023-08-31T11:47:49;4.32;;;1.00;;
50932;SDS011;36921;49.006;9.292;2023-08-31T11:50:14;4.20;;;1.13;;
50932;SDS011;36921;49.006;9.292;2023-08-31T11:52:42;5.25;;;1.40;;
50932;SDS011;36921;49.006;9.292;2023-08-31T11:55:11;5.50;;;1.33;;
50932;SDS011;36921;49.006;9.292;2023-08-31T11:57:37;5.05;;;1.50;;
50932;SDS011;36921;49.006;9.292;2023-08-31T12:00:04;4.40;;;1.48;;
50932;SDS011;36921;49.006;9.292;2023-08-31T12:02:36;4.90;;;1.30;;
50932;SDS011;36921;49.006;9.292;2023-08-31T12:05:02;5.57;;;1.45;;
50932;SDS011;36921;49.006;9.292;2023-08-31T12:07:27;3.42;;;1.20;;
50932;SDS011;36921;49.006;9.292;2023-08-31T12:09:52;7.00;;;1.50;;
50932;SDS011;36921;49.006;9.292;2023-08-31T12:12:22;5.88;;;1.50;;
50932;SDS011;36921;49.006;9.292;2023-08-31T12:14:52;4.15;;;1.23;;
50932;SDS011;36921;49.006;9.292;2023-08-31T12:19:43;4.03;;;1.38;;
50932;SDS011;36921;49.006;9.292;2023-08-31T12:22:09;3.58;;;1.45;;
50932;SDS011;36921;49.006;9.292;2023-08-31T12:24:40;4.38;;;1.08;;
50932;SDS011;36921;49.006;9.292;2023-08-31T12:27:07;4.57;;;1.30;;
50932;SDS011;36921;49.006;9.292;2023-08-31T12:29:36;3.90;;;1.10;;
50932;SDS011;36921;49.006;9.292;2023-08-31T12:32:01;7.43;;;1.38;;
50932;SDS011;36921;49.006;9.292;2023-08-31T12:34:28;4.85;;;1.35;;
50932;SDS011;36921;49.006;9.292;2023-08-31T12:36:53;5.22;;;1.45;;
50932;SDS011;36921;49.006;9.292;2023-08-31T12:39:19;3.80;;;1.20;;
50932;SDS011;36921;49.006;9.292;2023-08-31T12:41:44;7.50;;;1.27;;
50932;SDS011;36921;49.006;9.292;2023-08-31T12:44:10;4.13;;;1.20;;
50932;SDS011;36921;49.006;9.292;2023-08-31T12:46:35;4.78;;;1.33;;
50932;SDS011;36921;49.006;9.292;2023-08-31T12:49:00;3.35;;;1.38;;
50932;SDS011;36921;49.006;9.292;2023-08-31T12:51:28;4.20;;;1.25;;
50932;SDS011;36921;49.006;9.292;2023-08-31T12:53:54;7.38;;;1.85;;
50932;SDS011;36921;49.006;9.292;2023-08-31T12:56:19;5.95;;;1.40;;
50932;SDS011;36921;49.006;9.292;2023-08-31T12:58:50;4.95;;;1.50;;
50932;SDS011;36921;49.006;9.292;2023-08-31T13:01:17;4.85;;;1.50;;
50932;SDS011;36921;49.006;9.292;2023-08-31T13:03:43;5.22;;;1.50;;
50932;SDS011;36921;49.006;9.292;2023-08-31T13:06:09;4.85;;;1.42;;
50932;SDS011;36921;49.006;9.292;2023-08-31T13:08:34;4.35;;;1.42;;
50932;SDS011;36921;49.006;9.292;2023-08-31T13:11:00;6.13;;;1.27;;
50932;SDS011;36921;49.006;9.292;2023-08-31T13:13:25;6.22;;;1.73;;
50932;SDS011;36921;49.006;9.292;2023-08-31T13:15:50;7.50;;;1.60;;
50932;SDS011;36921;49.006;9.292;2023-08-31T13:18:16;7.47;;;1.42;;
50932;SDS011;36921;49.006;9.292;2023-08-31T13:20:48;2.80;;;1.15;;
50932;SDS011;36921;49.006;9.292;2023-08-31T13:23:20;7.00;;;1.30;;
50932;SDS011;36921;49.006;9.292;2023-08-31T13:25:46;4.75;;;1.30;;
50932;SDS011;36921;49.006;9.292;2023-08-31T13:28:11;4.43;;;1.25;;
50932;SDS011;36921;49.006;9.292;2023-08-31T13:30:37;7.57;;;1.50;;
50932;SDS011;36921;49.006;9.292;2023-08-31T13:33:02;3.28;;;1.30;;
50932;SDS011;36921;49.006;9.292;2023-08-31T13:35:29;2.63;;;1.23;;
50932;SDS011;36921;49.006;9.292;2023-08-31T13:37:54;5.10;;;1.20;;
50932;SDS011;36921;49.006;9.292;2023-08-31T13:40:20;5.15;;;1.40;;
50932;SDS011;36921;49.006;9.292;2023-08-31T13:42:52;5.13;;;1.40;;
50932;SDS011;36921;49.006;9.292;2023-08-31T13:45:19;5.97;;;1.30;;
50932;SDS011;36921;49.006;9.292;2023-08-31T13:47:44;7.28;;;1.40;;
50932;SDS011;36921;49.006;9.292;2023-08-31T13:50:14;5.45;;;1.45;;
50932;SDS011;36921;49.006;9.292;2023-08-31T13:52:39;3.25;;;1.23;;
50932;SDS011;36921;49.006;9.292;2023-08-31T13:55:05;3.22;;;1.30;;
50932;SDS011;36921;49.006;9.292;2023-08-31T13:57:30;5.03;;;1.40;;
50932;SDS011;36921;49.006;9.292;2023-08-31T13:59:56;4.97;;;1.23;;
50932;SDS011;36921;49.006;9.292;2023-08-31T14:02:21;4.38;;;1.27;;
50932;SDS011;36921;49.006;9.292;2023-08-31T14:04:46;5.28;;;1.30;;
50932;SDS011;36921;49.006;9.292;2023-08-31T14:07:12;3.20;;;1.30;;
50932;SDS011;36921;49.006;9.292;2023-08-31T14:09:37;4.10;;;1.35;;
50932;SDS011;36921;49.006;9.292;2023-08-31T14:12:02;5.63;;;1.20;;
50932;SDS011;36921;49.006;9.292;2023-08-31T14:14:28;5.90;;;1.50;;
50932;SDS011;36921;49.006;9.292;2023-08-31T14:16:54;7.13;;;1.60;;
50932;SDS011;36921;49.006;9.292;2023-08-31T14:19:20;3.97;;;1.50;;
50932;SDS011;36921;49.006;9.292;2023-08-31T14:21:45;4.78;;;1.52;;
50932;SDS011;36921;49.006;9.292;2023-08-31T14:24:12;4.32;;;1.23;;
50932;SDS011;36921;49.006;9.292;2023-08-31T14:26:38;3.75;;;1.35;;
50932;SDS011;36921;49.006;9.292;2023-08-31T14:29:03;4.78;;;1.13;;
50932;SDS011;36921;49.006;9.292;2023-08-31T14:31:29;3.03;;;1.30;;
50932;SDS011;36921;49.006;9.292;2023-08-31T14:33:54;4.30;;;1.65;;
50932;SDS011;36921;49.006;9.292;2023-08-31T14:36:20;5.72;;;1.38;;
50932;SDS011;36921;49.006;9.292;2023-08-31T14:38:46;3.97;;;1.50;;
50932;SDS011;36921;49.006;9.292;2023-08-31T14:41:11;3.45;;;1.23;;
50932;SDS011;36921;49.006;9.292;2023-08-31T14:43:37;4.13;;;1.17;;
50932;SDS011;36921;49.006;9.292;2023-08-31T14:46:02;3.58;;;1.30;;
50932;SDS011;36921;49.006;9.292;2023-08-31T14:48:29;7.10;;;1.15;;
50932;SDS011;36921;49.006;9.292;2023-08-31T14:50:55;3.05;;;1.10;;
50932;SDS011;36921;49.006;9.292;2023-08-31T14:53:20;3.92;;;1.40;;
50932;SDS011;36921;49.006;9.292;2023-08-31T14:55:51;4.53;;;1.30;;